Appleyard, Washington
Current Conditions -  °F | °C
As of 10:55 PM on Saturday 22 Nov 2014 (Local Time) from KEAT Reporting Station
Clear Clear  
Wind Chill: 37°   Ceiling: Unl
Heat Index: 44°   Visibility: 10mi
Dew Point: 28°   Wind: 16mph
Humidity: 53%   Direction: 330°NNW
Pressure: 29.99"   Gusts: NA
Location:  47.3635°N, 120.348°W
Report Text: KEAT 230655Z AUTO 33014KT 10SM CLR 07/M02 A2999 RMK AO2 PK WND 32026/0626 SLP162 T00671022
Loading
Personal Weather Stations






























Interactive Weather Map New forecast layout! Learn more

10-Day Weather Forecast

Advertisements
Track Severe Weather on mobile